Time;durP1;ratioP1;P1;durP2;ratioP2;P2;SDS_P1;SDS_P2;PMS_P1;PMS_P2;Temp;Humidity;BMP_temperature;BMP_pressure;BME280_temperature;BME280_humidity;BME280_pressure;Samples;Min_cycle;Max_cycle;Signal;HPM_P1;HPM_P2
2021/06/01 00:02:12;;;;;;;9.00;3.90;;;;;;;;;;10280250;28;20053;-60
2021/06/01 00:07:10;;;;;;;7.07;3.40;;;;;;;;;;10280194;28;20516;-60
2021/06/01 00:12:08;;;;;;;3.78;3.17;;;;;;;;;;10279852;28;20065;-57
2021/06/01 00:17:06;;;;;;;5.90;3.63;;;;;;;;;;10280114;28;20087;-58
2021/06/01 00:22:05;;;;;;;7.05;3.53;;;;;;;;;;10279992;28;20049;-60
2021/06/01 00:27:03;;;;;;;4.90;3.40;;;;;;;;;;10279833;28;20045;-58
2021/06/01 00:32:01;;;;;;;6.47;3.75;;;;;;;;;;10279092;28;20100;-59
2021/06/01 00:36:59;;;;;;;15.50;4.68;;;;;;;;;;10278766;28;20079;-59
2021/06/01 00:41:58;;;;;;;5.15;4.30;;;;;;;;;;10278727;28;20048;-59
2021/06/01 00:46:56;;;;;;;4.63;3.90;;;;;;;;;;10277462;28;20052;-59
2021/06/01 00:51:54;;;;;;;6.85;3.55;;;;;;;;;;10278389;28;20052;-58
2021/06/01 00:56:52;;;;;;;4.95;4.28;;;;;;;;;;10278251;28;20091;-59
2021/06/01 01:01:51;;;;;;;5.60;4.25;;;;;;;;;;10278006;28;20049;-58
2021/06/01 01:06:56;;;;;;;10.77;3.47;;;;;;;;;;10278238;28;20049;-59
2021/06/01 01:11:58;;;;;;;7.25;3.70;;;;;;;;;;10277416;28;20048;-58
2021/06/01 01:16:59;;;;;;;11.32;3.70;;;;;;;;;;10277212;28;20088;-59
2021/06/01 01:21:57;;;;;;;5.82;3.58;;;;;;;;;;10277435;28;20049;-60
2021/06/01 01:27:00;;;;;;;6.47;2.72;;;;;;;;;;10277029;28;20052;-59
2021/06/01 01:32:02;;;;;;;7.47;2.55;;;;;;;;;;10277311;28;20045;-58
2021/06/01 01:37:02;;;;;;;5.32;2.30;;;;;;;;;;10275782;28;20084;-59
2021/06/01 01:42:00;;;;;;;11.18;2.60;;;;;;;;;;10275917;28;20056;-58
2021/06/01 01:47:05;;;;;;;6.82;2.85;;;;;;;;;;10276271;28;20045;-59
2021/06/01 01:52:05;;;;;;;8.50;2.60;;;;;;;;;;10276521;28;20505;-59
2021/06/01 01:57:09;;;;;;;6.90;3.42;;;;;;;;;;10275807;28;20084;-59
2021/06/01 02:02:08;;;;;;;7.07;3.23;;;;;;;;;;10275851;28;20487;-59
2021/06/01 02:07:08;;;;;;;4.57;2.92;;;;;;;;;;10275550;28;20815;-58
2021/06/01 02:12:06;;;;;;;10.45;3.63;;;;;;;;;;10275507;28;20068;-59
2021/06/01 02:17:04;;;;;;;11.07;3.67;;;;;;;;;;10275373;28;20574;-59
2021/06/01 02:27:21;;;;;;;5.63;3.55;;;;;;;;;;10273695;28;20080;-59
2021/06/01 02:32:19;;;;;;;11.25;4.00;;;;;;;;;;10274997;28;20091;-59
2021/06/01 02:37:17;;;;;;;9.73;3.80;;;;;;;;;;10274738;28;20072;-59
2021/06/01 02:42:15;;;;;;;4.80;3.55;;;;;;;;;;10275008;28;20497;-59
2021/06/01 02:47:15;;;;;;;15.45;3.67;;;;;;;;;;10274983;28;20113;-59
2021/06/01 02:52:13;;;;;;;13.98;3.75;;;;;;;;;;10274452;28;20037;-59
2021/06/01 02:57:11;;;;;;;7.50;2.92;;;;;;;;;;10273903;28;20069;-59
2021/06/01 03:02:09;;;;;;;10.45;3.17;;;;;;;;;;10272595;28;20084;-59
2021/06/01 03:07:08;;;;;;;25.20;3.88;;;;;;;;;;10272631;28;20068;-59
2021/06/01 03:12:07;;;;;;;12.73;2.75;;;;;;;;;;10274473;28;20077;-58
2021/06/01 03:17:05;;;;;;;5.68;2.53;;;;;;;;;;10279014;28;20081;-59
2021/06/01 03:22:03;;;;;;;8.93;3.05;;;;;;;;;;10280054;28;20064;-59
2021/06/01 03:27:03;;;;;;;9.07;2.88;;;;;;;;;;10280275;28;20083;-59
2021/06/01 03:32:01;;;;;;;18.88;3.13;;;;;;;;;;10279280;28;20100;-59
2021/06/01 03:36:59;;;;;;;5.75;2.42;;;;;;;;;;10274189;28;20081;-58
2021/06/01 03:41:57;;;;;;;6.55;2.33;;;;;;;;;;10276025;28;20533;-59
2021/06/01 03:46:56;;;;;;;13.48;2.72;;;;;;;;;;10275402;28;20456;-59
2021/06/01 03:51:54;;;;;;;6.32;3.13;;;;;;;;;;10275009;28;20439;-59
2021/06/01 03:56:52;;;;;;;6.55;2.60;;;;;;;;;;10278505;28;20112;-59
2021/06/01 04:01:50;;;;;;;7.07;2.90;;;;;;;;;;10278912;28;20072;-60
2021/06/01 04:06:49;;;;;;;7.38;2.83;;;;;;;;;;10278331;28;20049;-60
2021/06/01 04:11:47;;;;;;;7.38;2.70;;;;;;;;;;10278182;28;20045;-60
2021/06/01 04:16:45;;;;;;;6.35;3.10;;;;;;;;;;10277238;28;20059;-60
2021/06/01 04:21:43;;;;;;;3.78;3.30;;;;;;;;;;10278222;28;20052;-60
2021/06/01 04:26:42;;;;;;;10.02;3.35;;;;;;;;;;10277780;28;20072;-60
2021/06/01 04:31:41;;;;;;;4.43;3.42;;;;;;;;;;10277475;28;20040;-60
2021/06/01 04:36:42;;;;;;;8.43;3.17;;;;;;;;;;10277067;28;20090;-60
2021/06/01 04:41:39;;;;;;;3.03;2.58;;;;;;;;;;10276976;28;20056;-60
2021/06/01 04:46:39;;;;;;;3.30;3.00;;;;;;;;;;10276862;28;20069;-60
2021/06/01 04:51:37;;;;;;;10.63;3.70;;;;;;;;;;10277128;28;20072;-60
2021/06/01 04:56:34;;;;;;;5.32;3.70;;;;;;;;;;10277104;28;20106;-60
2021/06/01 05:01:32;;;;;;;6.05;3.47;;;;;;;;;;10276419;28;20506;-59
2021/06/01 05:06:32;;;;;;;4.38;3.53;;;;;;;;;;10276153;28;20081;-60
2021/06/01 05:11:32;;;;;;;4.32;3.22;;;;;;;;;;10276948;28;20048;-60
2021/06/01 05:16:30;;;;;;;3.92;3.50;;;;;;;;;;10275872;28;20084;-60
2021/06/01 05:21:28;;;;;;;7.70;3.22;;;;;;;;;;10276330;28;20100;-60
2021/06/01 05:26:27;;;;;;;4.45;4.05;;;;;;;;;;10276644;28;20073;-60
2021/06/01 05:31:29;;;;;;;6.45;5.10;;;;;;;;;;10276259;28;20068;-59
2021/06/01 05:36:27;;;;;;;10.07;4.60;;;;;;;;;;10275675;28;20083;-59
2021/06/01 05:41:25;;;;;;;6.85;6.15;;;;;;;;;;10276076;28;20077;-59
2021/06/01 05:46:24;;;;;;;4.90;4.30;;;;;;;;;;10275736;28;20418;-59
2021/06/01 05:51:29;;;;;;;16.10;4.53;;;;;;;;;;10275749;28;20045;-59
2021/06/01 05:56:27;;;;;;;4.90;4.47;;;;;;;;;;10275528;28;20088;-60
2021/06/01 06:01:26;;;;;;;9.40;3.90;;;;;;;;;;10274927;28;20088;-60
2021/06/01 06:06:24;;;;;;;4.82;4.10;;;;;;;;;;10275090;28;20083;-59
2021/06/01 06:11:22;;;;;;;4.90;3.88;;;;;;;;;;10273707;28;20075;-59
2021/06/01 06:16:20;;;;;;;5.35;4.32;;;;;;;;;;10274619;28;20084;-60
2021/06/01 06:21:20;;;;;;;5.45;3.85;;;;;;;;;;10274678;28;20087;-55
2021/06/01 06:26:17;;;;;;;4.50;3.30;;;;;;;;;;10274616;28;20516;-61
2021/06/01 06:31:15;;;;;;;3.75;3.05;;;;;;;;;;10274402;28;20044;-60
2021/06/01 06:36:13;;;;;;;12.52;4.13;;;;;;;;;;10274232;28;20083;-61
2021/06/01 06:41:13;;;;;;;12.35;8.40;;;;;;;;;;10274490;28;20124;-59
2021/06/01 06:46:15;;;;;;;3.80;2.60;;;;;;;;;;10279013;28;20072;-60
2021/06/01 06:51:13;;;;;;;3.58;3.28;;;;;;;;;;10282315;28;20506;-59
2021/06/01 06:56:12;;;;;;;5.45;3.70;;;;;;;;;;10281972;28;20045;-59
2021/06/01 07:01:10;;;;;;;12.45;5.78;;;;;;;;;;10281349;28;20041;-60
2021/06/01 07:06:08;;;;;;;5.85;5.35;;;;;;;;;;10281748;28;20052;-58
2021/06/01 07:11:06;;;;;;;8.32;4.38;;;;;;;;;;10281740;28;20536;-59
2021/06/01 07:16:05;;;;;;;7.80;6.82;;;;;;;;;;10280747;28;20077;-60
2021/06/01 07:21:03;;;;;;;7.22;5.68;;;;;;;;;;10281082;28;20080;-59
2021/06/01 07:26:01;;;;;;;6.65;4.57;;;;;;;;;;10281293;28;20076;-59
2021/06/01 07:30:59;;;;;;;6.78;6.07;;;;;;;;;;10280105;28;20088;-60
2021/06/01 07:35:58;;;;;;;3.25;2.80;;;;;;;;;;10280816;28;20068;-60
2021/06/01 07:40:56;;;;;;;3.90;3.60;;;;;;;;;;10280157;28;20489;-59
2021/06/01 07:45:54;;;;;;;2.78;2.58;;;;;;;;;;10278175;28;20045;-59
2021/06/01 07:50:52;;;;;;;5.75;3.08;;;;;;;;;;10279080;28;20072;-59
2021/06/01 07:55:52;;;;;;;2.72;2.53;;;;;;;;;;10278869;28;20041;-60
2021/06/01 08:00:50;;;;;;;1.55;1.45;;;;;;;;;;10279427;28;20080;-60
2021/06/01 08:05:48;;;;;;;3.63;1.58;;;;;;;;;;10277988;28;20053;-60
2021/06/01 08:10:47;;;;;;;1.88;1.77;;;;;;;;;;10279158;28;20041;-60
2021/06/01 08:15:50;;;;;;;2.75;2.53;;;;;;;;;;10278886;28;20084;-60
2021/06/01 08:20:56;;;;;;;2.78;2.05;;;;;;;;;;10276423;28;20088;-60
2021/06/01 08:25:54;;;;;;;4.53;3.75;;;;;;;;;;10278565;28;20048;-61
2021/06/01 08:30:53;;;;;;;4.38;3.00;;;;;;;;;;10278561;28;20430;-60
2021/06/01 08:35:51;;;;;;;2.70;2.47;;;;;;;;;;10277152;28;20051;-60
2021/06/01 08:40:51;;;;;;;1.65;1.55;;;;;;;;;;10242754;28;20083;-61
2021/06/01 08:45:50;;;;;;;4.43;1.67;;;;;;;;;;10237120;28;20065;-61
2021/06/01 08:50:49;;;;;;;5.10;2.08;;;;;;;;;;10237468;28;20100;-60
2021/06/01 08:55:48;;;;;;;2.47;2.17;;;;;;;;;;10237104;28;20076;-60
2021/06/01 09:00:47;;;;;;;4.43;1.30;;;;;;;;;;10236966;28;20076;-60
2021/06/01 09:06:14;;;;;;;2.30;1.45;;;;;;;;;;10237288;28;20092;-60
2021/06/01 09:11:17;;;;;;;2.00;1.50;;;;;;;;;;10234632;28;20087;-60
2021/06/01 09:21:32;;;;;;;4.07;2.20;;;;;;;;;;10235755;28;20084;-60
2021/06/01 09:27:01;;;;;;;2.03;1.83;;;;;;;;;;10235004;28;20136;-60
2021/06/01 09:32:05;;;;;;;3.20;2.20;;;;;;;;;;10234748;28;20069;-61
2021/06/01 09:37:22;;;;;;;7.70;7.03;;;;;;;;;;10235580;28;20092;-60
2021/06/01 09:42:26;;;;;;;1.95;1.85;;;;;;;;;;10234988;28;20438;-60
2021/06/01 09:47:39;;;;;;;2.60;1.53;;;;;;;;;;10233642;28;20083;-59
2021/06/01 09:52:46;;;;;;;2.33;1.45;;;;;;;;;;10234448;28;20418;-60
2021/06/01 09:57:45;;;;;;;1.88;1.52;;;;;;;;;;10234320;28;20089;-60
2021/06/01 10:02:44;;;;;;;3.45;2.85;;;;;;;;;;10233864;28;20494;-60
2021/06/01 10:07:42;;;;;;;4.18;2.15;;;;;;;;;;10233971;28;20045;-60
2021/06/01 10:12:43;;;;;;;1.80;1.70;;;;;;;;;;10234238;28;20080;-60
2021/06/01 10:17:42;;;;;;;3.90;1.75;;;;;;;;;;10234200;28;20524;-60
2021/06/01 10:22:40;;;;;;;5.78;4.38;;;;;;;;;;10233229;28;20080;-59
2021/06/01 10:27:38;;;;;;;1.67;1.58;;;;;;;;;;10233388;28;20069;-60
2021/06/01 10:32:38;;;;;;;1.70;1.40;;;;;;;;;;10233099;28;20068;-60
2021/06/01 10:43:22;;;;;;;3.35;2.60;;;;;;;;;;10233454;28;20092;-60
2021/06/01 10:53:38;;;;;;;3.78;1.50;;;;;;;;;;10233210;28;20041;-58
2021/06/01 10:59:05;;;;;;;2.05;1.92;;;;;;;;;;10233256;28;20472;-58
2021/06/01 11:04:07;;;;;;;2.25;2.05;;;;;;;;;;10232139;28;20088;-59
2021/06/01 11:09:05;;;;;;;3.00;1.42;;;;;;;;;;10233307;28;20054;-59
2021/06/01 11:14:23;;;;;;;2.40;1.40;;;;;;;;;;10233803;28;20072;-59
2021/06/01 11:19:26;;;;;;;1.77;1.40;;;;;;;;;;10232457;28;20077;-59
2021/06/01 11:35:08;;;;;;;2.08;1.40;;;;;;;;;;10240228;28;20424;-59
2021/06/01 11:40:23;;;;;;;2.08;1.45;;;;;;;;;;10239290;28;20077;-59
2021/06/01 11:45:22;;;;;;;3.88;1.30;;;;;;;;;;10239798;28;20476;-56
2021/06/01 11:55:43;;;;;;;1.55;1.30;;;;;;;;;;10239015;28;20107;-58
2021/06/01 12:11:20;;;;;;;2.20;1.60;;;;;;;;;;10216101;28;20077;-60
2021/06/01 12:21:35;;;;;;;1.50;1.40;;;;;;;;;;10215373;28;20089;-59
2021/06/01 12:26:41;;;;;;;1.60;1.42;;;;;;;;;;10237349;28;20049;-59
2021/06/01 12:31:46;;;;;;;3.55;1.83;;;;;;;;;;10237301;28;20045;-59
2021/06/01 12:42:18;;;;;;;3.35;1.30;;;;;;;;;;10233121;28;19955;-59
2021/06/01 12:47:36;;;;;;;2.08;1.73;;;;;;;;;;10235570;28;20045;-60
2021/06/01 13:08:56;;;;;;;2.35;1.70;;;;;;;;;;10235230;28;20052;-60
2021/06/01 13:14:14;;;;;;;13.40;1.58;;;;;;;;;;10236836;28;20060;-59
2021/06/01 13:19:26;;;;;;;8.77;3.83;;;;;;;;;;10274344;28;20073;-60
2021/06/01 13:30:19;;;;;;;2.20;1.95;;;;;;;;;;10276370;28;20107;-58
2021/06/01 13:40:39;;;;;;;;;;;;;;;;;;10276896;28;20069;-60
2021/06/01 13:46:02;;;;;;;5.63;1.52;;;;;;;;;;10275489;28;19920;-60
2021/06/01 13:51:10;;;;;;;4.13;1.70;;;;;;;;;;10274952;28;20079;-59
2021/06/01 13:56:12;;;;;;;3.90;2.70;;;;;;;;;;10275170;28;20528;-59
2021/06/01 14:01:18;;;;;;;6.00;4.07;;;;;;;;;;10274243;28;20077;-59
2021/06/01 14:38:12;;;;;;;10.85;8.23;;;;;;;;;;10232811;28;20081;-62
2021/06/01 15:04:47;;;;;;;4.07;2.95;;;;;;;;;;10266246;28;19972;-59
2021/06/01 16:13:33;;;;;;;4.30;2.00;;;;;;;;;;10278816;28;20072;-58
2021/06/01 16:29:34;;;;;;;4.03;3.08;;;;;;;;;;10278633;28;20513;-59
2021/06/01 17:06:38;;;;;;;5.88;4.50;;;;;;;;;;10277924;28;20075;-60
2021/06/01 17:11:39;;;;;;;4.78;3.95;;;;;;;;;;10277424;28;20085;-57
2021/06/01 17:16:42;;;;;;;6.70;3.83;;;;;;;;;;10277545;28;20041;-58
2021/06/01 17:22:03;;;;;;;4.90;3.53;;;;;;;;;;10278300;28;20072;-58
2021/06/01 17:37:49;;;;;;;3.30;2.72;;;;;;;;;;10267792;28;20083;-56
2021/06/01 17:42:51;;;;;;;17.10;15.07;;;;;;;;;;10277133;28;20044;-53
2021/06/01 17:47:52;;;;;;;4.55;4.15;;;;;;;;;;10273020;28;20084;-57
2021/06/01 17:52:56;;;;;;;5.05;3.13;;;;;;;;;;10273474;28;20076;-58
2021/06/01 17:57:56;;;;;;;4.03;2.88;;;;;;;;;;10235733;28;20498;-58
2021/06/01 18:02:54;;;;;;;3.80;2.40;;;;;;;;;;10236065;28;20089;-58
2021/06/01 18:07:57;;;;;;;6.35;3.78;;;;;;;;;;10250425;28;20041;-58
2021/06/01 19:00:55;;;;;;;5.75;4.03;;;;;;;;;;10257700;28;20076;-59
2021/06/01 19:06:08;;;;;;;4.63;3.83;;;;;;;;;;10243728;28;20057;-58
2021/06/01 19:22:06;;;;;;;10.20;5.95;;;;;;;;;;10280532;28;20076;-57
2021/06/01 19:27:34;;;;;;;8.05;5.40;;;;;;;;;;10264260;28;20073;-58
2021/06/01 19:53:51;;;;;;;11.40;4.90;;;;;;;;;;10277418;28;20079;-57
2021/06/01 19:58:49;;;;;;;8.00;4.43;;;;;;;;;;10279839;28;20490;-58
2021/06/01 20:03:51;;;;;;;7.10;3.10;;;;;;;;;;10278787;28;20087;-58
2021/06/01 20:08:49;;;;;;;3.85;2.15;;;;;;;;;;10279633;28;20053;-56
2021/06/01 20:13:47;;;;;;;4.85;2.50;;;;;;;;;;10279749;28;20072;-58
2021/06/01 20:18:45;;;;;;;4.00;2.90;;;;;;;;;;10279591;28;20084;-55
2021/06/01 20:23:45;;;;;;;2.88;2.30;;;;;;;;;;10279556;28;20041;-57
2021/06/01 20:28:48;;;;;;;2.15;1.92;;;;;;;;;;10244242;28;20049;-59
2021/06/01 20:33:47;;;;;;;5.65;2.20;;;;;;;;;;10240016;28;20060;-58
2021/06/01 20:38:46;;;;;;;2.35;1.73;;;;;;;;;;10239771;28;20056;-57
2021/06/01 20:43:45;;;;;;;4.55;3.15;;;;;;;;;;10239144;28;20057;-59
2021/06/01 20:48:45;;;;;;;2.40;1.70;;;;;;;;;;10239087;28;20046;-57
2021/06/01 20:53:43;;;;;;;5.30;1.70;;;;;;;;;;10271556;28;20469;-57
2021/06/01 20:58:44;;;;;;;2.95;1.75;;;;;;;;;;10279075;28;20477;-57
2021/06/01 21:03:42;;;;;;;2.72;1.70;;;;;;;;;;10276686;28;20088;-57
2021/06/01 21:08:40;;;;;;;3.15;2.35;;;;;;;;;;10278071;28;20520;-57
2021/06/01 21:13:39;;;;;;;2.60;1.63;;;;;;;;;;10278123;28;20090;-58
2021/06/01 21:18:39;;;;;;;1.67;1.30;;;;;;;;;;10278350;28;20052;-56
2021/06/01 21:23:37;;;;;;;3.65;1.58;;;;;;;;;;10276859;28;20041;-57
2021/06/01 21:28:35;;;;;;;3.13;2.03;;;;;;;;;;10275987;28;20084;-57
2021/06/01 21:33:34;;;;;;;3.75;1.67;;;;;;;;;;10277880;28;20084;-57
2021/06/01 21:38:37;;;;;;;1.60;1.50;;;;;;;;;;10277765;28;20482;-57
2021/06/01 21:43:36;;;;;;;2.35;1.80;;;;;;;;;;10277578;28;20037;-57
2021/06/01 21:48:39;;;;;;;4.30;2.42;;;;;;;;;;10277542;28;20072;-58
2021/06/01 21:53:40;;;;;;;3.20;2.38;;;;;;;;;;10276392;28;20084;-58
2021/06/01 21:58:38;;;;;;;2.78;1.77;;;;;;;;;;10275696;28;20095;-57
2021/06/01 22:03:36;;;;;;;1.67;1.40;;;;;;;;;;10275373;28;20472;-57
2021/06/01 22:08:34;;;;;;;6.30;1.65;;;;;;;;;;10276596;28;20061;-58
2021/06/01 22:13:33;;;;;;;3.47;2.13;;;;;;;;;;10275344;28;20468;-57
2021/06/01 22:18:32;;;;;;;2.13;1.38;;;;;;;;;;10272746;28;20068;-57
2021/06/01 22:23:32;;;;;;;4.30;1.80;;;;;;;;;;10273816;28;20429;-56
2021/06/01 22:28:31;;;;;;;4.38;1.60;;;;;;;;;;10275596;28;20073;-57
2021/06/01 22:33:33;;;;;;;4.70;1.83;;;;;;;;;;10275815;28;20083;-57
2021/06/01 22:38:31;;;;;;;2.08;1.70;;;;;;;;;;10275952;28;20053;-57
2021/06/01 22:43:33;;;;;;;3.00;1.33;;;;;;;;;;10275681;28;20072;-56
2021/06/01 22:48:33;;;;;;;3.22;1.35;;;;;;;;;;10275491;28;20052;-57
2021/06/01 22:53:31;;;;;;;3.25;1.35;;;;;;;;;;10275636;28;20045;-57
2021/06/01 22:58:34;;;;;;;2.33;1.20;;;;;;;;;;10275597;28;20068;-57
2021/06/01 23:03:36;;;;;;;2.53;1.50;;;;;;;;;;10274681;28;20095;-57
2021/06/01 23:08:34;;;;;;;1.90;1.20;;;;;;;;;;10274697;28;20049;-57
2021/06/01 23:13:33;;;;;;;5.18;1.42;;;;;;;;;;10274932;28;20485;-57
2021/06/01 23:18:31;;;;;;;4.25;1.98;;;;;;;;;;10274918;28;20048;-56
2021/06/01 23:23:31;;;;;;;1.33;1.20;;;;;;;;;;10274786;28;20060;-57
2021/06/01 23:28:29;;;;;;;1.40;1.30;;;;;;;;;;10277323;28;20053;-57
2021/06/01 23:33:27;;;;;;;1.30;1.20;;;;;;;;;;10282438;28;20077;-57
2021/06/01 23:38:29;;;;;;;1.60;0.98;;;;;;;;;;10282223;28;20049;-56
2021/06/01 23:43:28;;;;;;;1.60;1.50;;;;;;;;;;10281998;28;20083;-57
2021/06/01 23:53:42;;;;;;;;;;;;;;;;;;10282031;28;20529;-57
2021/06/01 23:58:41;;;;;;;1.40;1.30;;;;;;;;;;10281391;28;19928;-57
